Anderson, Texas
Current Conditions -  °F | °C
As of 3:53 AM on Friday 24 Oct 2014 (Local Time) from KCLL Reporting Station
Broken Clouds Broken Clouds  
Wind Chill: 61°   Ceiling: 8000
Heat Index: 61°   Visibility: 10mi
Dew Point: 54°   Wind: 5mph
Humidity: 78%   Direction: 90°E
Pressure: 30.12"   Gusts: NA
Location:  30.49°N, 95.99°W
Report Text: KCLL 240853Z AUTO 09004KT 10SM BKN080 16/12 A3012 RMK AO2 SLP196 T01610122 50002
Loading
Personal Weather Stations






























Interactive Weather Map
Tropical Storm Tracking
New forecast layout! Learn more

10-Day Weather Forecast

Advertisements
Track Severe Weather on mobile